sensor_id;sensor_type;location;lat;lon;timestamp;P1;durP1;ratioP1;P2;durP2;ratioP2
5704;SDS011;2877;48.238;11.160;2022-08-30T00:00:32;8.70;;;7.57;;
5704;SDS011;2877;48.238;11.160;2022-08-30T00:03:17;10.17;;;7.90;;
5704;SDS011;2877;48.238;11.160;2022-08-30T00:05:44;11.67;;;8.30;;
5704;SDS011;2877;48.238;11.160;2022-08-30T00:08:10;10.17;;;8.63;;
5704;SDS011;2877;48.238;11.160;2022-08-30T00:10:37;10.53;;;9.20;;
5704;SDS011;2877;48.238;11.160;2022-08-30T00:13:04;14.30;;;8.70;;
5704;SDS011;2877;48.238;11.160;2022-08-30T00:15:32;11.33;;;9.10;;
5704;SDS011;2877;48.238;11.160;2022-08-30T00:17:57;8.77;;;7.73;;
5704;SDS011;2877;48.238;11.160;2022-08-30T00:20:25;11.83;;;8.23;;
5704;SDS011;2877;48.238;11.160;2022-08-30T00:22:53;14.30;;;8.43;;
5704;SDS011;2877;48.238;11.160;2022-08-30T00:25:19;8.77;;;7.87;;
5704;SDS011;2877;48.238;11.160;2022-08-30T00:27:45;13.83;;;7.80;;
5704;SDS011;2877;48.238;11.160;2022-08-30T00:30:13;8.97;;;7.73;;
5704;SDS011;2877;48.238;11.160;2022-08-30T00:32:40;9.17;;;8.07;;
5704;SDS011;2877;48.238;11.160;2022-08-30T00:35:06;9.10;;;7.43;;
5704;SDS011;2877;48.238;11.160;2022-08-30T00:37:33;11.80;;;7.30;;
5704;SDS011;2877;48.238;11.160;2022-08-30T00:39:59;10.07;;;8.33;;
5704;SDS011;2877;48.238;11.160;2022-08-30T00:42:25;10.00;;;8.83;;
5704;SDS011;2877;48.238;11.160;2022-08-30T00:44:51;8.57;;;7.67;;
5704;SDS011;2877;48.238;11.160;2022-08-30T00:47:17;11.20;;;9.10;;
5704;SDS011;2877;48.238;11.160;2022-08-30T00:49:47;10.13;;;8.43;;
5704;SDS011;2877;48.238;11.160;2022-08-30T00:52:15;11.27;;;8.90;;
5704;SDS011;2877;48.238;11.160;2022-08-30T00:54:44;10.47;;;9.13;;
5704;SDS011;2877;48.238;11.160;2022-08-30T00:57:11;12.40;;;8.70;;
5704;SDS011;2877;48.238;11.160;2022-08-30T00:59:38;9.30;;;8.30;;
5704;SDS011;2877;48.238;11.160;2022-08-30T01:02:05;10.40;;;8.40;;
5704;SDS011;2877;48.238;11.160;2022-08-30T01:04:31;10.80;;;8.23;;
5704;SDS011;2877;48.238;11.160;2022-08-30T01:06:58;11.70;;;8.30;;
5704;SDS011;2877;48.238;11.160;2022-08-30T01:09:24;9.40;;;8.33;;
5704;SDS011;2877;48.238;11.160;2022-08-30T01:11:50;12.00;;;8.97;;
5704;SDS011;2877;48.238;11.160;2022-08-30T01:14:16;9.23;;;8.17;;
5704;SDS011;2877;48.238;11.160;2022-08-30T01:16:45;11.20;;;8.07;;
5704;SDS011;2877;48.238;11.160;2022-08-30T01:21:53;12.37;;;8.40;;
5704;SDS011;2877;48.238;11.160;2022-08-30T01:24:24;17.27;;;8.80;;
5704;SDS011;2877;48.238;11.160;2022-08-30T01:26:49;11.70;;;8.60;;
5704;SDS011;2877;48.238;11.160;2022-08-30T01:29:17;11.37;;;8.90;;
5704;SDS011;2877;48.238;11.160;2022-08-30T01:31:47;9.53;;;8.10;;
5704;SDS011;2877;48.238;11.160;2022-08-30T01:34:13;11.17;;;8.43;;
5704;SDS011;2877;48.238;11.160;2022-08-30T01:36:41;12.43;;;8.67;;
5704;SDS011;2877;48.238;11.160;2022-08-30T01:39:10;9.60;;;8.20;;
5704;SDS011;2877;48.238;11.160;2022-08-30T01:41:40;10.17;;;8.20;;
5704;SDS011;2877;48.238;11.160;2022-08-30T01:44:09;10.30;;;8.20;;
5704;SDS011;2877;48.238;11.160;2022-08-30T01:46:37;10.50;;;8.50;;
5704;SDS011;2877;48.238;11.160;2022-08-30T01:49:07;10.83;;;7.70;;
5704;SDS011;2877;48.238;11.160;2022-08-30T01:51:35;9.47;;;7.67;;
5704;SDS011;2877;48.238;11.160;2022-08-30T01:54:01;10.03;;;7.77;;
5704;SDS011;2877;48.238;11.160;2022-08-30T01:56:27;14.93;;;7.97;;
5704;SDS011;2877;48.238;11.160;2022-08-30T01:58:54;11.30;;;8.63;;
5704;SDS011;2877;48.238;11.160;2022-08-30T02:01:21;9.00;;;8.10;;
5704;SDS011;2877;48.238;11.160;2022-08-30T02:03:48;18.30;;;8.03;;
5704;SDS011;2877;48.238;11.160;2022-08-30T02:06:15;10.77;;;8.70;;
5704;SDS011;2877;48.238;11.160;2022-08-30T02:08:42;12.40;;;8.50;;
5704;SDS011;2877;48.238;11.160;2022-08-30T02:11:08;9.43;;;8.53;;
5704;SDS011;2877;48.238;11.160;2022-08-30T02:13:35;9.50;;;8.37;;
5704;SDS011;2877;48.238;11.160;2022-08-30T02:16:04;10.33;;;8.60;;
5704;SDS011;2877;48.238;11.160;2022-08-30T02:18:35;10.00;;;8.47;;
5704;SDS011;2877;48.238;11.160;2022-08-30T02:21:03;11.00;;;9.23;;
5704;SDS011;2877;48.238;11.160;2022-08-30T02:23:29;10.30;;;8.37;;
5704;SDS011;2877;48.238;11.160;2022-08-30T02:25:55;12.37;;;9.70;;
5704;SDS011;2877;48.238;11.160;2022-08-30T02:28:20;9.90;;;8.50;;
5704;SDS011;2877;48.238;11.160;2022-08-30T02:30:46;13.53;;;8.37;;
5704;SDS011;2877;48.238;11.160;2022-08-30T02:33:12;9.53;;;8.10;;
5704;SDS011;2877;48.238;11.160;2022-08-30T02:35:39;11.93;;;7.90;;
5704;SDS011;2877;48.238;11.160;2022-08-30T02:38:04;11.07;;;8.17;;
5704;SDS011;2877;48.238;11.160;2022-08-30T02:40:30;9.77;;;8.77;;
5704;SDS011;2877;48.238;11.160;2022-08-30T02:42:56;10.20;;;8.27;;
5704;SDS011;2877;48.238;11.160;2022-08-30T02:45:22;12.00;;;8.80;;
5704;SDS011;2877;48.238;11.160;2022-08-30T02:47:48;8.40;;;7.60;;
5704;SDS011;2877;48.238;11.160;2022-08-30T02:50:14;15.07;;;8.60;;
5704;SDS011;2877;48.238;11.160;2022-08-30T02:52:40;8.90;;;8.00;;
5704;SDS011;2877;48.238;11.160;2022-08-30T02:55:06;12.10;;;9.00;;
5704;SDS011;2877;48.238;11.160;2022-08-30T02:57:32;12.20;;;9.50;;
5704;SDS011;2877;48.238;11.160;2022-08-30T02:59:58;9.77;;;8.70;;
5704;SDS011;2877;48.238;11.160;2022-08-30T03:02:24;14.93;;;8.60;;
5704;SDS011;2877;48.238;11.160;2022-08-30T03:04:50;12.57;;;10.10;;
5704;SDS011;2877;48.238;11.160;2022-08-30T03:07:16;13.07;;;10.40;;
5704;SDS011;2877;48.238;11.160;2022-08-30T03:09:43;13.97;;;9.67;;
5704;SDS011;2877;48.238;11.160;2022-08-30T03:12:09;14.50;;;10.93;;
5704;SDS011;2877;48.238;11.160;2022-08-30T03:14:37;14.77;;;11.23;;
5704;SDS011;2877;48.238;11.160;2022-08-30T03:17:03;13.00;;;10.50;;
5704;SDS011;2877;48.238;11.160;2022-08-30T03:19:31;14.97;;;10.60;;
5704;SDS011;2877;48.238;11.160;2022-08-30T03:21:57;14.50;;;11.73;;
5704;SDS011;2877;48.238;11.160;2022-08-30T03:24:23;13.13;;;10.57;;
5704;SDS011;2877;48.238;11.160;2022-08-30T03:26:49;13.77;;;11.30;;
5704;SDS011;2877;48.238;11.160;2022-08-30T03:29:15;13.60;;;10.30;;
5704;SDS011;2877;48.238;11.160;2022-08-30T03:31:41;12.37;;;8.90;;
5704;SDS011;2877;48.238;11.160;2022-08-30T03:34:07;12.03;;;8.73;;
5704;SDS011;2877;48.238;11.160;2022-08-30T03:36:35;11.40;;;9.40;;
5704;SDS011;2877;48.238;11.160;2022-08-30T03:39:02;11.53;;;9.50;;
5704;SDS011;2877;48.238;11.160;2022-08-30T03:41:29;10.93;;;9.50;;
5704;SDS011;2877;48.238;11.160;2022-08-30T03:43:56;11.40;;;9.40;;
5704;SDS011;2877;48.238;11.160;2022-08-30T03:46:22;11.97;;;9.37;;
5704;SDS011;2877;48.238;11.160;2022-08-30T03:48:47;13.20;;;9.20;;
5704;SDS011;2877;48.238;11.160;2022-08-30T03:51:13;11.30;;;9.43;;
5704;SDS011;2877;48.238;11.160;2022-08-30T03:53:39;9.90;;;8.50;;
5704;SDS011;2877;48.238;11.160;2022-08-30T03:56:04;10.80;;;9.17;;
5704;SDS011;2877;48.238;11.160;2022-08-30T03:58:30;17.60;;;10.80;;
5704;SDS011;2877;48.238;11.160;2022-08-30T04:00:55;10.37;;;9.30;;
5704;SDS011;2877;48.238;11.160;2022-08-30T04:03:21;13.87;;;9.50;;
5704;SDS011;2877;48.238;11.160;2022-08-30T04:05:50;14.33;;;10.50;;
5704;SDS011;2877;48.238;11.160;2022-08-30T04:08:17;13.97;;;10.03;;
5704;SDS011;2877;48.238;11.160;2022-08-30T04:10:44;12.17;;;9.93;;
5704;SDS011;2877;48.238;11.160;2022-08-30T04:13:09;14.73;;;9.63;;
5704;SDS011;2877;48.238;11.160;2022-08-30T04:15:35;12.00;;;10.10;;
5704;SDS011;2877;48.238;11.160;2022-08-30T04:18:01;13.30;;;10.40;;
5704;SDS011;2877;48.238;11.160;2022-08-30T04:20:26;13.13;;;10.33;;
5704;SDS011;2877;48.238;11.160;2022-08-30T04:22:52;15.63;;;10.23;;
5704;SDS011;2877;48.238;11.160;2022-08-30T04:25:17;12.73;;;10.13;;
5704;SDS011;2877;48.238;11.160;2022-08-30T04:27:46;12.43;;;10.20;;
5704;SDS011;2877;48.238;11.160;2022-08-30T04:30:12;11.23;;;9.77;;
5704;SDS011;2877;48.238;11.160;2022-08-30T04:32:39;12.77;;;10.13;;
5704;SDS011;2877;48.238;11.160;2022-08-30T04:35:05;10.50;;;9.40;;
5704;SDS011;2877;48.238;11.160;2022-08-30T04:37:30;14.77;;;9.47;;
5704;SDS011;2877;48.238;11.160;2022-08-30T04:39:56;10.73;;;8.83;;
5704;SDS011;2877;48.238;11.160;2022-08-30T04:42:24;14.47;;;10.00;;
5704;SDS011;2877;48.238;11.160;2022-08-30T04:44:52;9.90;;;8.90;;
5704;SDS011;2877;48.238;11.160;2022-08-30T04:47:17;13.67;;;9.40;;
5704;SDS011;2877;48.238;11.160;2022-08-30T04:49:43;11.33;;;9.53;;
5704;SDS011;2877;48.238;11.160;2022-08-30T04:52:08;10.60;;;8.60;;
5704;SDS011;2877;48.238;11.160;2022-08-30T04:54:35;14.20;;;9.40;;
5704;SDS011;2877;48.238;11.160;2022-08-30T04:57:00;12.70;;;10.50;;
5704;SDS011;2877;48.238;11.160;2022-08-30T04:59:26;11.60;;;8.30;;
5704;SDS011;2877;48.238;11.160;2022-08-30T05:01:52;11.23;;;8.47;;
5704;SDS011;2877;48.238;11.160;2022-08-30T05:04:18;10.57;;;8.53;;
5704;SDS011;2877;48.238;11.160;2022-08-30T05:06:43;12.30;;;8.77;;
5704;SDS011;2877;48.238;11.160;2022-08-30T05:09:09;10.23;;;9.20;;
5704;SDS011;2877;48.238;11.160;2022-08-30T05:11:35;12.77;;;8.00;;
5704;SDS011;2877;48.238;11.160;2022-08-30T05:14:01;8.73;;;7.57;;
5704;SDS011;2877;48.238;11.160;2022-08-30T05:16:27;8.80;;;7.87;;
5704;SDS011;2877;48.238;11.160;2022-08-30T05:18:53;10.20;;;8.77;;
5704;SDS011;2877;48.238;11.160;2022-08-30T05:21:19;10.23;;;8.77;;
5704;SDS011;2877;48.238;11.160;2022-08-30T05:23:48;13.37;;;8.80;;
5704;SDS011;2877;48.238;11.160;2022-08-30T05:26:15;11.90;;;9.70;;
5704;SDS011;2877;48.238;11.160;2022-08-30T05:28:43;11.10;;;8.40;;
5704;SDS011;2877;48.238;11.160;2022-08-30T05:33:40;9.97;;;8.90;;
5704;SDS011;2877;48.238;11.160;2022-08-30T05:36:06;12.50;;;9.70;;
5704;SDS011;2877;48.238;11.160;2022-08-30T05:38:32;12.00;;;9.27;;
5704;SDS011;2877;48.238;11.160;2022-08-30T05:40:58;11.13;;;9.90;;
5704;SDS011;2877;48.238;11.160;2022-08-30T05:43:23;12.40;;;9.70;;
5704;SDS011;2877;48.238;11.160;2022-08-30T05:45:57;11.43;;;9.83;;
5704;SDS011;2877;48.238;11.160;2022-08-30T05:48:28;13.97;;;10.17;;
5704;SDS011;2877;48.238;11.160;2022-08-30T05:51:04;11.93;;;10.40;;
5704;SDS011;2877;48.238;11.160;2022-08-30T05:53:37;13.60;;;10.30;;
5704;SDS011;2877;48.238;11.160;2022-08-30T05:56:04;13.93;;;10.70;;
5704;SDS011;2877;48.238;11.160;2022-08-30T05:58:32;13.60;;;9.70;;
5704;SDS011;2877;48.238;11.160;2022-08-30T06:00:58;12.90;;;11.10;;
5704;SDS011;2877;48.238;11.160;2022-08-30T06:03:24;11.13;;;9.93;;
5704;SDS011;2877;48.238;11.160;2022-08-30T06:05:50;12.87;;;10.63;;
5704;SDS011;2877;48.238;11.160;2022-08-30T06:08:16;12.03;;;10.20;;
5704;SDS011;2877;48.238;11.160;2022-08-30T06:10:41;10.47;;;9.37;;
5704;SDS011;2877;48.238;11.160;2022-08-30T06:13:07;13.10;;;9.10;;
5704;SDS011;2877;48.238;11.160;2022-08-30T06:15:33;11.87;;;8.37;;
5704;SDS011;2877;48.238;11.160;2022-08-30T06:17:59;9.40;;;8.50;;
5704;SDS011;2877;48.238;11.160;2022-08-30T06:20:24;8.67;;;7.87;;
5704;SDS011;2877;48.238;11.160;2022-08-30T06:22:50;13.67;;;7.97;;
5704;SDS011;2877;48.238;11.160;2022-08-30T06:25:15;8.20;;;7.40;;
5704;SDS011;2877;48.238;11.160;2022-08-30T06:27:41;9.43;;;7.77;;
5704;SDS011;2877;48.238;11.160;2022-08-30T06:30:07;8.47;;;7.67;;
5704;SDS011;2877;48.238;11.160;2022-08-30T06:32:34;8.43;;;7.63;;
5704;SDS011;2877;48.238;11.160;2022-08-30T06:35:01;9.80;;;8.00;;
5704;SDS011;2877;48.238;11.160;2022-08-30T06:37:26;8.53;;;7.73;;
5704;SDS011;2877;48.238;11.160;2022-08-30T06:39:52;6.70;;;6.10;;
5704;SDS011;2877;48.238;11.160;2022-08-30T06:42:17;8.00;;;7.20;;
5704;SDS011;2877;48.238;11.160;2022-08-30T06:44:43;9.60;;;8.13;;
5704;SDS011;2877;48.238;11.160;2022-08-30T06:47:09;8.53;;;7.70;;
5704;SDS011;2877;48.238;11.160;2022-08-30T06:49:35;8.50;;;7.60;;
5704;SDS011;2877;48.238;11.160;2022-08-30T06:52:00;8.60;;;7.70;;
5704;SDS011;2877;48.238;11.160;2022-08-30T06:54:26;8.90;;;7.10;;
5704;SDS011;2877;48.238;11.160;2022-08-30T06:56:52;8.87;;;6.73;;
5704;SDS011;2877;48.238;11.160;2022-08-30T06:59:17;7.93;;;6.70;;
5704;SDS011;2877;48.238;11.160;2022-08-30T07:01:43;7.50;;;6.70;;
5704;SDS011;2877;48.238;11.160;2022-08-30T07:04:09;8.53;;;7.73;;
5704;SDS011;2877;48.238;11.160;2022-08-30T07:06:34;9.63;;;7.97;;
5704;SDS011;2877;48.238;11.160;2022-08-30T07:09:00;8.47;;;6.83;;
5704;SDS011;2877;48.238;11.160;2022-08-30T07:11:30;10.83;;;6.70;;
5704;SDS011;2877;48.238;11.160;2022-08-30T07:13:59;7.30;;;6.60;;
5704;SDS011;2877;48.238;11.160;2022-08-30T07:16:26;6.53;;;5.83;;
5704;SDS011;2877;48.238;11.160;2022-08-30T07:18:52;6.87;;;6.23;;
5704;SDS011;2877;48.238;11.160;2022-08-30T07:21:20;9.80;;;7.07;;
5704;SDS011;2877;48.238;11.160;2022-08-30T07:23:47;7.23;;;6.53;;
5704;SDS011;2877;48.238;11.160;2022-08-30T07:26:14;10.23;;;6.27;;
5704;SDS011;2877;48.238;11.160;2022-08-30T07:28:41;7.00;;;6.37;;
5704;SDS011;2877;48.238;11.160;2022-08-30T07:31:08;8.33;;;7.53;;
5704;SDS011;2877;48.238;11.160;2022-08-30T07:33:35;8.50;;;6.80;;
5704;SDS011;2877;48.238;11.160;2022-08-30T07:36:01;9.43;;;7.73;;
5704;SDS011;2877;48.238;11.160;2022-08-30T07:38:29;8.20;;;7.40;;
5704;SDS011;2877;48.238;11.160;2022-08-30T07:40:54;7.43;;;6.73;;
5704;SDS011;2877;48.238;11.160;2022-08-30T07:43:23;13.30;;;7.40;;
5704;SDS011;2877;48.238;11.160;2022-08-30T07:45:49;7.70;;;7.00;;
5704;SDS011;2877;48.238;11.160;2022-08-30T07:48:14;7.73;;;6.83;;
5704;SDS011;2877;48.238;11.160;2022-08-30T07:50:43;7.30;;;6.60;;
5704;SDS011;2877;48.238;11.160;2022-08-30T07:53:10;7.27;;;6.57;;
5704;SDS011;2877;48.238;11.160;2022-08-30T07:55:37;7.13;;;6.47;;
5704;SDS011;2877;48.238;11.160;2022-08-30T07:58:03;17.10;;;6.50;;
5704;SDS011;2877;48.238;11.160;2022-08-30T08:00:29;7.47;;;6.40;;
5704;SDS011;2877;48.238;11.160;2022-08-30T08:02:54;8.20;;;5.50;;
5704;SDS011;2877;48.238;11.160;2022-08-30T08:05:20;8.23;;;6.00;;
5704;SDS011;2877;48.238;11.160;2022-08-30T08:07:46;8.50;;;6.53;;
5704;SDS011;2877;48.238;11.160;2022-08-30T08:10:11;7.10;;;6.40;;
5704;SDS011;2877;48.238;11.160;2022-08-30T08:12:37;6.90;;;6.00;;
5704;SDS011;2877;48.238;11.160;2022-08-30T08:15:03;6.70;;;6.03;;
5704;SDS011;2877;48.238;11.160;2022-08-30T08:17:29;6.40;;;5.80;;
5704;SDS011;2877;48.238;11.160;2022-08-30T08:19:55;8.17;;;5.77;;
5704;SDS011;2877;48.238;11.160;2022-08-30T08:22:20;11.97;;;5.73;;
5704;SDS011;2877;48.238;11.160;2022-08-30T08:24:46;6.30;;;5.70;;
5704;SDS011;2877;48.238;11.160;2022-08-30T08:27:12;6.17;;;5.60;;
5704;SDS011;2877;48.238;11.160;2022-08-30T08:29:38;11.07;;;6.23;;
5704;SDS011;2877;48.238;11.160;2022-08-30T08:32:03;7.77;;;6.20;;
5704;SDS011;2877;48.238;11.160;2022-08-30T08:34:29;6.90;;;6.20;;
5704;SDS011;2877;48.238;11.160;2022-08-30T08:36:54;6.77;;;6.07;;
5704;SDS011;2877;48.238;11.160;2022-08-30T08:39:20;6.60;;;6.00;;
5704;SDS011;2877;48.238;11.160;2022-08-30T08:41:54;9.70;;;6.20;;
5704;SDS011;2877;48.238;11.160;2022-08-30T08:47:37;7.40;;;6.60;;
5704;SDS011;2877;48.238;11.160;2022-08-30T08:50:12;10.00;;;7.73;;
5704;SDS011;2877;48.238;11.160;2022-08-30T08:55:28;7.80;;;6.20;;
5704;SDS011;2877;48.238;11.160;2022-08-30T08:57:54;8.90;;;6.23;;
5704;SDS011;2877;48.238;11.160;2022-08-30T09:00:20;6.90;;;6.23;;
5704;SDS011;2877;48.238;11.160;2022-08-30T09:02:56;7.03;;;6.20;;
5704;SDS011;2877;48.238;11.160;2022-08-30T09:05:25;18.40;;;6.20;;
5704;SDS011;2877;48.238;11.160;2022-08-30T09:07:57;9.00;;;7.73;;
5704;SDS011;2877;48.238;11.160;2022-08-30T09:10:30;11.10;;;6.80;;
5704;SDS011;2877;48.238;11.160;2022-08-30T09:12:57;6.17;;;5.67;;
5704;SDS011;2877;48.238;11.160;2022-08-30T09:15:24;7.33;;;6.47;;
5704;SDS011;2877;48.238;11.160;2022-08-30T09:20:24;6.30;;;5.70;;
5704;SDS011;2877;48.238;11.160;2022-08-30T09:22:55;8.03;;;6.13;;
5704;SDS011;2877;48.238;11.160;2022-08-30T09:27:49;6.17;;;5.57;;
5704;SDS011;2877;48.238;11.160;2022-08-30T09:30:20;6.00;;;5.43;;
5704;SDS011;2877;48.238;11.160;2022-08-30T09:35:40;7.33;;;6.50;;
5704;SDS011;2877;48.238;11.160;2022-08-30T09:38:09;7.97;;;5.30;;
5704;SDS011;2877;48.238;11.160;2022-08-30T09:40:48;9.30;;;5.73;;
5704;SDS011;2877;48.238;11.160;2022-08-30T09:45:42;5.13;;;4.67;;
5704;SDS011;2877;48.238;11.160;2022-08-30T09:48:20;4.90;;;4.50;;
5704;SDS011;2877;48.238;11.160;2022-08-30T09:56:42;5.43;;;4.30;;
5704;SDS011;2877;48.238;11.160;2022-08-30T09:59:34;6.43;;;5.13;;
5704;SDS011;2877;48.238;11.160;2022-08-30T10:02:31;5.60;;;5.00;;
5704;SDS011;2877;48.238;11.160;2022-08-30T10:05:15;5.27;;;4.87;;
5704;SDS011;2877;48.238;11.160;2022-08-30T10:08:03;5.60;;;4.10;;
5704;SDS011;2877;48.238;11.160;2022-08-30T10:10:36;7.47;;;4.77;;
5704;SDS011;2877;48.238;11.160;2022-08-30T10:24:44;5.47;;;4.00;;
5704;SDS011;2877;48.238;11.160;2022-08-30T10:27:15;5.17;;;4.00;;
5704;SDS011;2877;48.238;11.160;2022-08-30T10:29:47;4.13;;;3.83;;
5704;SDS011;2877;48.238;11.160;2022-08-30T10:32:19;5.10;;;3.97;;
5704;SDS011;2877;48.238;11.160;2022-08-30T10:35:00;6.17;;;4.20;;
5704;SDS011;2877;48.238;11.160;2022-08-30T10:37:53;7.13;;;3.90;;
5704;SDS011;2877;48.238;11.160;2022-08-30T10:40:31;4.17;;;3.77;;
5704;SDS011;2877;48.238;11.160;2022-08-30T10:43:23;5.50;;;3.93;;
5704;SDS011;2877;48.238;11.160;2022-08-30T10:45:59;5.30;;;3.93;;
5704;SDS011;2877;48.238;11.160;2022-08-30T10:48:31;4.60;;;4.20;;
5704;SDS011;2877;48.238;11.160;2022-08-30T10:51:07;4.40;;;4.00;;
5704;SDS011;2877;48.238;11.160;2022-08-30T10:53:54;6.87;;;4.07;;
5704;SDS011;2877;48.238;11.160;2022-08-30T10:56:25;5.00;;;4.50;;
5704;SDS011;2877;48.238;11.160;2022-08-30T10:58:53;4.97;;;4.47;;
5704;SDS011;2877;48.238;11.160;2022-08-30T11:06:48;5.13;;;4.00;;
5704;SDS011;2877;48.238;11.160;2022-08-30T11:14:55;9.90;;;4.93;;
5704;SDS011;2877;48.238;11.160;2022-08-30T11:19:53;5.10;;;4.33;;
5704;SDS011;2877;48.238;11.160;2022-08-30T11:25:13;5.87;;;4.40;;
5704;SDS011;2877;48.238;11.160;2022-08-30T11:27:50;4.80;;;4.40;;
5704;SDS011;2877;48.238;11.160;2022-08-30T11:35:51;5.20;;;4.37;;
5704;SDS011;2877;48.238;11.160;2022-08-30T11:38:19;5.97;;;4.90;;
5704;SDS011;2877;48.238;11.160;2022-08-30T11:41:10;8.27;;;4.27;;
5704;SDS011;2877;48.238;11.160;2022-08-30T11:48:51;5.60;;;4.37;;
5704;SDS011;2877;48.238;11.160;2022-08-30T11:54:40;4.30;;;3.90;;
5704;SDS011;2877;48.238;11.160;2022-08-30T11:57:37;5.00;;;4.50;;
5704;SDS011;2877;48.238;11.160;2022-08-30T12:03:25;4.07;;;3.60;;
5704;SDS011;2877;48.238;11.160;2022-08-30T12:05:56;5.17;;;4.67;;
5704;SDS011;2877;48.238;11.160;2022-08-30T12:10:59;4.93;;;3.73;;
5704;SDS011;2877;48.238;11.160;2022-08-30T12:13:52;5.23;;;3.73;;
5704;SDS011;2877;48.238;11.160;2022-08-30T12:16:22;4.97;;;3.43;;
5704;SDS011;2877;48.238;11.160;2022-08-30T12:19:21;6.10;;;3.80;;
5704;SDS011;2877;48.238;11.160;2022-08-30T12:21:56;4.83;;;3.70;;
5704;SDS011;2877;48.238;11.160;2022-08-30T12:24:25;5.40;;;3.20;;
5704;SDS011;2877;48.238;11.160;2022-08-30T12:26:53;5.17;;;3.07;;
5704;SDS011;2877;48.238;11.160;2022-08-30T12:29:20;6.87;;;3.60;;
5704;SDS011;2877;48.238;11.160;2022-08-30T12:31:58;5.60;;;3.70;;
5704;SDS011;2877;48.238;11.160;2022-08-30T12:34:36;3.97;;;3.60;;
5704;SDS011;2877;48.238;11.160;2022-08-30T12:37:25;3.50;;;3.20;;
5704;SDS011;2877;48.238;11.160;2022-08-30T12:45:19;6.00;;;3.40;;
5704;SDS011;2877;48.238;11.160;2022-08-30T12:47:50;3.70;;;2.93;;
5704;SDS011;2877;48.238;11.160;2022-08-30T12:50:18;9.10;;;3.30;;
5704;SDS011;2877;48.238;11.160;2022-08-30T12:52:47;3.80;;;3.30;;
5704;SDS011;2877;48.238;11.160;2022-08-30T12:55:22;3.67;;;2.80;;
5704;SDS011;2877;48.238;11.160;2022-08-30T12:58:04;4.03;;;3.73;;
5704;SDS011;2877;48.238;11.160;2022-08-30T13:00:34;3.33;;;3.07;;
5704;SDS011;2877;48.238;11.160;2022-08-30T13:03:05;4.67;;;3.40;;
5704;SDS011;2877;48.238;11.160;2022-08-30T13:05:56;3.67;;;3.33;;
5704;SDS011;2877;48.238;11.160;2022-08-30T13:13:36;3.50;;;3.20;;
5704;SDS011;2877;48.238;11.160;2022-08-30T13:18:42;4.33;;;3.37;;
5704;SDS011;2877;48.238;11.160;2022-08-30T13:23:57;4.57;;;3.23;;
5704;SDS011;2877;48.238;11.160;2022-08-30T13:26:24;3.73;;;3.43;;
5704;SDS011;2877;48.238;11.160;2022-08-30T13:31:21;4.07;;;3.67;;
5704;SDS011;2877;48.238;11.160;2022-08-30T13:33:49;6.70;;;3.60;;
5704;SDS011;2877;48.238;11.160;2022-08-30T13:36:17;3.63;;;3.23;;
5704;SDS011;2877;48.238;11.160;2022-08-30T13:38:45;3.10;;;2.90;;
5704;SDS011;2877;48.238;11.160;2022-08-30T13:41:11;3.77;;;3.47;;
5704;SDS011;2877;48.238;11.160;2022-08-30T13:43:37;3.20;;;2.90;;
5704;SDS011;2877;48.238;11.160;2022-08-30T13:46:03;3.10;;;2.90;;
5704;SDS011;2877;48.238;11.160;2022-08-30T13:48:29;3.67;;;3.27;;
5704;SDS011;2877;48.238;11.160;2022-08-30T13:50:56;3.60;;;3.30;;
5704;SDS011;2877;48.238;11.160;2022-08-30T13:53:21;4.30;;;3.67;;
5704;SDS011;2877;48.238;11.160;2022-08-30T13:55:47;3.40;;;3.10;;
5704;SDS011;2877;48.238;11.160;2022-08-30T13:58:13;4.03;;;3.30;;
5704;SDS011;2877;48.238;11.160;2022-08-30T14:00:40;3.60;;;3.30;;
5704;SDS011;2877;48.238;11.160;2022-08-30T14:03:05;3.43;;;3.13;;
5704;SDS011;2877;48.238;11.160;2022-08-30T14:05:32;3.67;;;2.90;;
5704;SDS011;2877;48.238;11.160;2022-08-30T14:07:59;3.70;;;3.40;;
5704;SDS011;2877;48.238;11.160;2022-08-30T14:10:26;4.43;;;3.10;;
5704;SDS011;2877;48.238;11.160;2022-08-30T14:12:53;5.30;;;3.20;;
5704;SDS011;2877;48.238;11.160;2022-08-30T14:15:18;2.83;;;2.63;;
5704;SDS011;2877;48.238;11.160;2022-08-30T14:17:44;2.97;;;2.70;;
5704;SDS011;2877;48.238;11.160;2022-08-30T14:20:10;3.20;;;2.90;;
5704;SDS011;2877;48.238;11.160;2022-08-30T14:22:36;4.27;;;2.90;;
5704;SDS011;2877;48.238;11.160;2022-08-30T14:25:01;3.80;;;2.83;;
5704;SDS011;2877;48.238;11.160;2022-08-30T14:27:28;6.70;;;3.30;;
5704;SDS011;2877;48.238;11.160;2022-08-30T14:29:54;4.53;;;3.40;;
5704;SDS011;2877;48.238;11.160;2022-08-30T14:32:19;4.13;;;3.80;;
5704;SDS011;2877;48.238;11.160;2022-08-30T14:34:45;9.00;;;4.00;;
5704;SDS011;2877;48.238;11.160;2022-08-30T14:37:11;4.07;;;3.63;;
5704;SDS011;2877;48.238;11.160;2022-08-30T14:39:37;5.67;;;4.00;;
5704;SDS011;2877;48.238;11.160;2022-08-30T14:42:03;6.93;;;4.20;;
5704;SDS011;2877;48.238;11.160;2022-08-30T14:44:29;5.20;;;3.83;;
5704;SDS011;2877;48.238;11.160;2022-08-30T14:46:54;5.20;;;3.73;;
5704;SDS011;2877;48.238;11.160;2022-08-30T14:49:21;4.17;;;3.77;;
5704;SDS011;2877;48.238;11.160;2022-08-30T14:51:47;5.50;;;3.80;;
5704;SDS011;2877;48.238;11.160;2022-08-30T14:54:14;4.20;;;3.80;;
5704;SDS011;2877;48.238;11.160;2022-08-30T14:56:40;9.03;;;3.40;;
5704;SDS011;2877;48.238;11.160;2022-08-30T14:59:06;4.33;;;3.57;;
5704;SDS011;2877;48.238;11.160;2022-08-30T15:01:31;3.37;;;3.17;;
5704;SDS011;2877;48.238;11.160;2022-08-30T15:03:58;3.20;;;3.00;;
5704;SDS011;2877;48.238;11.160;2022-08-30T15:06:23;8.37;;;3.70;;
5704;SDS011;2877;48.238;11.160;2022-08-30T15:08:50;5.20;;;3.40;;
5704;SDS011;2877;48.238;11.160;2022-08-30T15:11:16;5.53;;;3.97;;
5704;SDS011;2877;48.238;11.160;2022-08-30T15:13:43;9.73;;;3.60;;
5704;SDS011;2877;48.238;11.160;2022-08-30T15:16:13;4.33;;;3.40;;
5704;SDS011;2877;48.238;11.160;2022-08-30T15:18:39;3.93;;;3.40;;
5704;SDS011;2877;48.238;11.160;2022-08-30T15:21:05;4.30;;;3.90;;
5704;SDS011;2877;48.238;11.160;2022-08-30T15:23:30;3.67;;;3.37;;
5704;SDS011;2877;48.238;11.160;2022-08-30T15:25:56;5.30;;;3.40;;
5704;SDS011;2877;48.238;11.160;2022-08-30T15:28:22;5.67;;;3.50;;
5704;SDS011;2877;48.238;11.160;2022-08-30T15:30:47;4.87;;;4.10;;
5704;SDS011;2877;48.238;11.160;2022-08-30T15:33:14;5.50;;;3.67;;
5704;SDS011;2877;48.238;11.160;2022-08-30T15:35:39;4.23;;;3.20;;
5704;SDS011;2877;48.238;11.160;2022-08-30T15:38:05;4.20;;;3.90;;
5704;SDS011;2877;48.238;11.160;2022-08-30T15:40:31;7.13;;;3.67;;
5704;SDS011;2877;48.238;11.160;2022-08-30T15:42:57;4.80;;;3.70;;
5704;SDS011;2877;48.238;11.160;2022-08-30T15:45:23;4.97;;;3.37;;
5704;SDS011;2877;48.238;11.160;2022-08-30T15:47:49;4.07;;;3.67;;
5704;SDS011;2877;48.238;11.160;2022-08-30T15:50:14;5.17;;;3.90;;
5704;SDS011;2877;48.238;11.160;2022-08-30T15:52:40;5.43;;;3.50;;
5704;SDS011;2877;48.238;11.160;2022-08-30T15:55:07;3.40;;;3.10;;
5704;SDS011;2877;48.238;11.160;2022-08-30T15:57:33;3.30;;;3.00;;
5704;SDS011;2877;48.238;11.160;2022-08-30T15:59:59;6.10;;;3.70;;
5704;SDS011;2877;48.238;11.160;2022-08-30T16:02:24;5.03;;;3.60;;
5704;SDS011;2877;48.238;11.160;2022-08-30T16:04:50;5.33;;;4.00;;
5704;SDS011;2877;48.238;11.160;2022-08-30T16:07:15;3.53;;;3.23;;
5704;SDS011;2877;48.238;11.160;2022-08-30T16:09:41;4.03;;;3.60;;
5704;SDS011;2877;48.238;11.160;2022-08-30T16:12:07;5.37;;;3.97;;
5704;SDS011;2877;48.238;11.160;2022-08-30T16:14:33;6.93;;;3.87;;
5704;SDS011;2877;48.238;11.160;2022-08-30T16:16:59;4.47;;;3.60;;
5704;SDS011;2877;48.238;11.160;2022-08-30T16:19:25;4.20;;;3.67;;
5704;SDS011;2877;48.238;11.160;2022-08-30T16:21:51;3.57;;;3.37;;
5704;SDS011;2877;48.238;11.160;2022-08-30T16:24:17;3.47;;;3.17;;
5704;SDS011;2877;48.238;11.160;2022-08-30T16:26:44;3.47;;;3.17;;
5704;SDS011;2877;48.238;11.160;2022-08-30T16:29:13;6.07;;;3.37;;
5704;SDS011;2877;48.238;11.160;2022-08-30T16:31:39;4.17;;;3.73;;
5704;SDS011;2877;48.238;11.160;2022-08-30T16:34:07;4.43;;;3.63;;